createdAt,value
2023-02-04T00:17:56.916Z,97689.24
2023-02-04T00:28:04.462Z,97703.56
2023-02-04T00:38:11.705Z,97708.64
2023-02-04T00:48:18.789Z,97705.90
2023-02-04T00:58:24.946Z,97693.73
2023-02-04T01:08:32.062Z,97701.08
2023-02-04T01:18:40.200Z,97698.81
2023-02-04T01:28:47.330Z,97709.21
2023-02-04T01:38:54.791Z,97727.35
2023-02-04T01:49:02.349Z,97737.71
2023-02-04T01:59:11.927Z,97741.44
2023-02-04T02:09:19.604Z,97750.73
2023-02-04T02:19:25.380Z,97758.42
2023-02-04T02:29:32.742Z,97778.27
2023-02-04T02:39:41.268Z,97813.10
2023-02-04T02:49:51.535Z,97858.04
2023-02-04T02:59:59.011Z,97930.30
2023-02-04T03:10:07.267Z,98005.38
2023-02-04T03:20:16.722Z,98053.52
2023-02-04T03:30:24.726Z,98123.42
2023-02-04T03:40:32.144Z,98194.07
2023-02-04T03:50:39.756Z,98250.59
2023-02-04T04:00:47.234Z,98309.00
2023-02-04T04:10:54.593Z,98363.94
2023-02-04T04:21:02.049Z,98418.59
2023-02-04T04:31:09.545Z,98487.67
2023-02-04T04:41:16.950Z,98541.11
2023-02-04T04:51:24.126Z,98600.98
2023-02-04T05:01:31.314Z,98660.63
2023-02-04T05:11:38.598Z,98713.77
2023-02-04T05:21:45.700Z,98766.87
2023-02-04T05:31:52.935Z,98822.92
2023-02-04T05:42:00.354Z,98870.77
2023-02-04T05:52:08.089Z,98932.73
2023-02-04T06:02:15.030Z,98978.27
2023-02-04T06:12:22.648Z,99017.17
2023-02-04T06:22:30.069Z,99063.52
2023-02-04T06:32:37.834Z,99085.38
2023-02-04T06:42:45.030Z,99126.67
2023-02-04T06:52:52.188Z,99174.10
2023-02-04T07:13:06.545Z,99229.40
2023-02-04T07:23:14.037Z,99276.42
2023-02-04T07:33:20.217Z,99303.61
2023-02-04T07:43:27.453Z,99323.48
2023-02-04T07:53:35.129Z,99354.54
2023-02-04T08:03:43.188Z,99386.04
2023-02-04T08:13:49.337Z,99418.39
2023-02-04T08:23:57.088Z,99445.83
2023-02-04T08:34:05.000Z,99464.27
2023-02-04T08:44:12.175Z,99477.17
2023-02-04T08:54:19.493Z,99478.34
2023-02-04T09:04:26.755Z,99505.02
2023-02-04T09:14:33.963Z,99527.48
2023-02-04T09:24:41.287Z,99558.55
2023-02-04T09:34:48.875Z,99583.98
2023-02-04T09:44:56.284Z,99606.16
2023-02-04T09:55:03.786Z,99632.12
2023-02-04T10:05:15.362Z,99652.52
2023-02-04T10:15:23.644Z,99665.02
2023-02-04T10:25:30.929Z,99677.38
2023-02-04T10:35:46.461Z,99693.83
2023-02-04T10:45:56.671Z,99705.57
2023-02-04T10:56:13.578Z,99717.44
2023-02-04T11:06:25.161Z,99728.16
2023-02-04T11:16:35.944Z,99741.15
2023-02-04T11:26:40.627Z,99746.64
2023-02-04T11:36:56.239Z,99745.89
2023-02-04T11:47:08.276Z,99758.77
2023-02-04T11:57:14.098Z,99769.55
2023-02-04T12:07:23.397Z,99783.40
2023-02-04T12:17:31.227Z,99781.95
2023-02-04T12:27:38.748Z,99783.63
2023-02-04T12:37:46.299Z,99797.79
2023-02-04T12:47:52.577Z,99802.90
2023-02-04T12:57:59.139Z,99810.65
2023-02-04T13:08:05.201Z,99816.17
2023-02-04T13:18:12.563Z,99817.80
2023-02-04T13:28:32.955Z,99818.57
2023-02-04T13:48:45.799Z,99842.14
2023-02-04T13:58:53.035Z,99855.76
2023-02-04T14:09:01.141Z,99863.92
2023-02-04T14:19:09.485Z,99873.06
2023-02-04T14:29:16.477Z,99879.63
2023-02-04T14:39:22.593Z,99877.76
2023-02-04T14:49:29.811Z,99876.98
2023-02-04T14:59:38.215Z,99876.91
2023-02-04T15:09:46.311Z,99880.08
2023-02-04T15:19:53.825Z,99887.30
2023-02-04T15:30:01.126Z,99900.91
2023-02-04T15:40:09.026Z,99905.18
2023-02-04T15:50:16.515Z,99918.48
2023-02-04T16:00:24.369Z,99932.40
2023-02-04T16:10:32.173Z,99943.64
2023-02-04T16:20:40.229Z,99947.11
2023-02-04T16:30:46.426Z,99948.21
2023-02-04T16:40:53.621Z,99952.95
2023-02-04T16:51:01.000Z,99958.84
2023-02-04T17:01:08.722Z,99965.22
2023-02-04T17:11:32.158Z,99974.02
2023-02-04T17:21:40.039Z,99982.73
2023-02-04T17:31:47.254Z,99987.92
2023-02-04T17:41:54.517Z,99995.64
2023-02-04T17:52:02.071Z,100001.25
2023-02-04T18:02:11.536Z,100008.92
2023-02-04T18:12:20.598Z,100019.84
2023-02-04T18:22:29.283Z,100019.84
2023-02-04T18:32:34.176Z,100034.60
2023-02-04T18:42:43.641Z,100038.86
2023-02-04T18:52:51.081Z,100043.66
2023-02-04T19:02:56.580Z,100049.83
2023-02-04T19:13:02.169Z,100060.73
2023-02-04T19:23:15.649Z,100067.78
2023-02-04T19:33:21.365Z,100077.30
2023-02-04T19:43:34.996Z,100084.66
2023-02-04T19:53:42.116Z,100087.26
2023-02-04T20:03:50.880Z,100086.84
2023-02-04T20:13:56.018Z,100087.16
2023-02-04T20:24:07.093Z,100096.58
2023-02-04T20:34:22.353Z,100102.13
2023-02-04T20:44:30.259Z,100113.45
2023-02-04T20:54:37.319Z,100129.50
2023-02-04T21:04:47.221Z,100137.63
2023-02-04T21:14:54.680Z,100151.77
2023-02-04T21:25:02.215Z,100162.91
2023-02-04T21:35:07.088Z,100162.98
2023-02-04T21:45:14.219Z,100168.23
2023-02-04T21:55:23.008Z,100179.61
2023-02-04T22:05:30.162Z,100192.13
2023-02-04T22:15:37.251Z,100198.17
2023-02-04T22:25:44.430Z,100206.33
2023-02-04T22:35:51.508Z,100213.58
2023-02-04T22:45:59.681Z,100222.63
2023-02-04T22:56:07.255Z,100233.17
2023-02-04T23:06:13.727Z,100238.13
2023-02-04T23:16:21.056Z,100245.20
2023-02-04T23:26:28.538Z,100251.23
2023-02-04T23:36:36.802Z,100248.07
2023-02-04T23:46:45.172Z,100247.02
2023-02-04T23:56:52.951Z,100252.27
